NCAR-RAP Real-Time Weather Data

Output produced by METARs form (26 May 2022  08:14 UTC)
found at http://weather.rap.ucar.edu/surface/
 
KBUF 260754Z 17006KT 10SM BKN110 18/11 A3003 RMK AO2 SLP168 T01780111
KBUF 260654Z 18007KT 10SM BKN200 18/11 A3005 RMK AO2 SLP173 T01780111
KBUF 260554Z 18009KT 10SM BKN200 18/11 A3006 RMK AO2 SLP177 T01830111 10233 20178 58014
KBUF 260454Z 17010KT 10SM OVC200 18/12 A3008 RMK AO2 SLP183 T01830117 402390117
KBUF 260354Z 16008KT 10SM OVC200 19/11 A3009 RMK AO2 SLP188 T01940111
KBUF 260254Z 17014G21KT 10SM SCT110 OVC140 21/11 A3010 RMK AO2 SLP191 T02060111 58006
KBUF 260154Z 17013KT 10SM OVC110 22/11 A3011 RMK AO2 SLP194 T02220106
KBUF 260054Z 16009KT 10SM BKN110 OVC140 23/11 A3011 RMK AO2 SLP195 T02280111
KBUF 252354Z 14006KT 10SM SCT090 BKN120 BKN140 OVC180 23/12 A3012 RMK AO2 SLP196 T02330122 10239 20211 56013
KBUF 252254Z 12006KT 10SM SCT100 BKN150 OVC190 23/13 A3012 RMK AO2 SLP199 T02330128
KBUF 252154Z 15007KT 10SM SCT046 BKN170 23/13 A3015 RMK AO2 SLP207 T02330133
KBUF 252054Z 15013G17KT 10SM SCT045 SCT065 BKN150 BKN190 BKN230 23/13 A3016 RMK AO2 SLP211 T02330128 56025
KBUF 251954Z 16009KT 10SM BKN045 BKN190 23/13 A3018 RMK AO2 SLP218 T02280128
KBUF 251854Z 12014KT 10SM SCT040 BKN190 22/13 A3020 RMK AO2 SLP225 T02220128
KBUF 251754Z 13011G19KT 10SM OVC039 22/12 A3023 RMK AO2 SLP236 OCNL BINOVC T02170122 10222 20144 57019
KBUF 251654Z 12011G17KT 10SM BKN040 BKN260 21/12 A3025 RMK AO2 SLP242 T02110117
KBUF 251554Z 09008KT 10SM BKN037 BKN260 21/12 A3027 RMK AO2 SLP250 T02060122
KBUF 251454Z 12008KT 10SM FEW033 BKN046 BKN260 19/12 A3029 RMK AO2 SLP256 T01940117 58005
KBUF 251354Z 15009KT 10SM BKN046 BKN250 19/11 A3030 RMK AO2 SLP260 T01890111
KBUF 251254Z 00000KT 10SM BKN041 BKN260 17/12 A3031 RMK AO2 SLP263 T01670117
KBUF 251154Z 11004KT 10SM SCT036 BKN250 14/11 A3030 RMK AO2 SLP262 T01440106 10144 20117 53011
KBUF 251054Z 11004KT 10SM BKN250 13/09 A3030 RMK AO2 SLP259 T01280094
KBUF 250954Z 12007KT 10SM FEW030 SCT250 12/09 A3028 RMK AO2 SLP252 T01170089
KBUF 250854Z 10005KT 10SM FEW030 SCT250 12/08 A3027 RMK AO2 SLP251 T01220083 55003
KBUF 250754Z 12006KT 10SM BKN030 BKN250 13/08 A3027 RMK AO2 SLP248 T01330078
KBUF 250654Z 07005KT 10SM FEW029 FEW060 SCT250 12/08 A3027 RMK AO2 SLP251 T01220078
KBUF 250554Z 06003KT 10SM FEW038 FEW060 SCT250 13/07 A3028 RMK AO2 SLP254 T01330072 10167 20133 51005
KBUF 250454Z 12006KT 10SM FEW038 BKN065 14/07 A3027 RMK AO2 SLP251 T01440067 402110072
KBUF 250354Z 12007KT 10SM BKN041 BKN160 BKN280 14/06 A3027 RMK AO2 SLP252 T01440061
KBUF 250254Z 09005KT 10SM BKN045 BKN140 BKN280 15/06 A3026 RMK AO2 SLP248 T01500061 51006
KBUF 250154Z 11006KT 10SM BKN050 BKN140 BKN280 16/06 A3026 RMK AO2 SLP248 T01560061
KBUF 250054Z 09005KT 10SM SCT070 SCT120 BKN280 16/06 A3025 RMK AO2 SLP243 T01560061
KBUF 242354Z 04010KT 10SM FEW050 FEW100 BKN280 17/05 A3024 RMK AO2 SLP243 T01670050 10211 20167 53011
KBUF 242254Z 05011KT 10SM FEW050 FEW100 OVC280 18/06 A3024 RMK AO2 SLP241 T01780061
KBUF 242154Z 03010KT 10SM FEW050 FEW110 FEW180 SCT280 19/07 A3021 RMK AO2 SLP233 T01890072
KBUF 242054Z 03014G19KT 10SM FEW045 FEW180 SCT280 19/09 A3021 RMK AO2 SLP232 T01940089 56007
KBUF 241954Z 03008G17KT 10SM FEW048 FEW180 FEW280 21/10 A3022 RMK AO2 SLP233 T02060100
KBUF 241854Z VRB05KT 10SM FEW048 FEW170 FEW220 SCT270 21/09 A3022 RMK AO2 SLP234 T02060094
KBUF 241754Z VRB06KT 10SM FEW045 FEW170 FEW220 SCT270 20/09 A3023 RMK AO2 SLP238 T02000089 10206 20111 56011
KBUF 241654Z 05008KT 10SM FEW042 FEW170 SCT270 19/09 A3024 RMK AO2 SLP241 T01940089
KBUF 241556Z VRB04KT 10SM FEW037 FEW160 FEW260 18/08 A3025 RMK AO2 T01780083
KBUF 241554Z 05005KT 10SM CLR 18/08 A3025 RMK AO2 SLP246 T01830083
KBUF 241454Z 05004KT 10SM FEW150 FEW270 17/08 A3027 RMK AO2 SLP250 T01670078 58010
KBUF 241354Z 06006KT 10SM FEW150 FEW270 15/08 A3027 RMK AO2 SLP253 T01500083
KBUF 241254Z 05006KT 10SM FEW150 SCT250 SCT300 13/07 A3029 RMK AO2 SLP259 T01280072
KBUF 241154Z 04007KT 10SM SCT250 11/07 A3030 RMK AO2 SLP261 T01110067 10111 20072 53012
KBUF 241054Z 01003KT 10SM FEW250 09/06 A3028 RMK AO2 SLP258 T00890056 $
KBUF 240954Z 06004KT 10SM CLR 07/06 A3026 RMK AO2 SLP250 T00720056 $
KBUF 240854Z 03004KT 10SM CLR 08/06 A3026 RMK AO2 SLP249 T00830056 55007 $